Tropical Cyclones
[Index]
Main Index Home Page Stock Weather Photos Extreme Storms Discussion Storm News and Storm Chasing Reports Tropical Cyclones / Hurricanes / Typhoons Weather Data and Links Wild Fires / Bushfires Weather Observation Techniques Weather Picture Catalogue Tornado Pictures and Reports Stock Video Footage and DVDs for sale
Season 1996-1997 Tropical Cyclone HINA Track Map
Season 1996-1997 Summaries: [BoM-AU] [JTWC-AU] [JTWC-SIO] [JTWC-SPAC] [JTWC-SH]
<<- Previous TC | JTWC 1996-1997 Season | Next TC ->>

click for intensity scale information  Lat/long Grid: Show Hide

 Date Labels: Show Hide

Joint Typhoon Warning Centre Cyclone Data

Name: HINA

12 Mar 1997 00:00 UTC to 18 Mar 1997 18:00 UTC

    date/time    lat    long     hPa   cat  kts
1997-03-12 00   12.9   175.9                  25          
1997-03-12 06   12.8   175.9                  25          
1997-03-12 12   12.7   175.9                  30          
1997-03-12 18   12.6   175.9                  30          
1997-03-13 00   12.4   175.9                  35          
1997-03-13 06   12.1   175.9                  35          
1997-03-13 12   11.7   175.9                  35          
1997-03-13 18   11.3   176.1                  35          
1997-03-14 00   10.8   176.5                  35          
1997-03-14 06   10.5   177.3                  35          
1997-03-14 12   10.8   178.4            1     40          
1997-03-14 18   11.7   179.5            1     45          
1997-03-15 00   12.7   179.4W           1     45          
1997-03-15 06   14.0   178.3W           1     45          
1997-03-15 12   15.4   177.8W           1     45          
1997-03-15 18   17.1   177.5W           1     45          
1997-03-16 00   18.8   176.8W           1     45          
1997-03-16 06   20.3   176.0W           1     50          
1997-03-16 12   22.2   175.0W           2     55          
1997-03-16 18   23.9   173.6W           2     60          
1997-03-17 00   25.3   171.9W           2     65          
1997-03-17 06   26.5   170.0W           2     70          
1997-03-17 12   27.9   167.9W           3     75          
1997-03-17 18   29.1   165.7W           3     75          
1997-03-18 00   30.3   163.7W           2     65          
1997-03-18 06   31.6   161.8W           2     55          
1997-03-18 12   32.7   160.2W           1     45          
1997-03-18 18   34.0   158.6W           1     40          
Winds are 1-min average.

Tropical cyclone tracks developed by Michael Bath using data from the Joint Typhoon Warning Centre Best Tracks and Google Maps.


[Australian Severe Weather index] [Copyright Notice] [Email Contacts] [Search This Site] [Privacy Policy]
Document: tropical_cyclone_hina.htm Updated: 18 September 2016